RYR174 LICC-LMML
Flight info
| Callsign | RYR174 |
|---|---|
| Flight time | 0h 34m |
| Altitude | 15000 |
| Route | NELDA N982 GZO |
| Aircraft | B38M/M-SDE1FGHILORVWXY/HB1 |
Departure
| Time | 2026-05-06 17:44 |
|---|---|
| Airport | Catania-Fontanarossa Airport (LICC) |
Arrival
| Time | 2026-05-06 18:18 |
|---|---|
| Airport | Malta International Airport (LMML) |
| Time | Latitude | Longitude | Altitude | Speed | Heading |
|---|---|---|---|---|---|
| 2026-05-06 17:00 | 37.46937 | 15.06812 | 34 ft | 0 kts | 354° |
| 2026-05-06 17:33 | 37.46935 | 15.06813 | 34 ft | 2 kts | 354° |
| 2026-05-06 17:34 | 37.46912 | 15.06816 | 34 ft | 3 kts | 354° |
| 2026-05-06 17:34 | 37.46890 | 15.06818 | 34 ft | 2 kts | 354° |
| 2026-05-06 17:34 | 37.46872 | 15.06823 | 34 ft | 3 kts | 331° |
| 2026-05-06 17:34 | 37.46861 | 15.06839 | 34 ft | 3 kts | 270° |
| 2026-05-06 17:35 | 37.46861 | 15.06840 | 34 ft | 3 kts | 264° |
| 2026-05-06 17:35 | 37.46860 | 15.06835 | 34 ft | 0 kts | 264° |
| 2026-05-06 17:39 | 37.46860 | 15.06834 | 34 ft | 1 kts | 264° |
| 2026-05-06 17:39 | 37.46858 | 15.06800 | 34 ft | 9 kts | 263° |
| 2026-05-06 17:39 | 37.46849 | 15.06694 | 34 ft | 14 kts | 264° |
| 2026-05-06 17:39 | 37.46838 | 15.06565 | 34 ft | 16 kts | 264° |
| 2026-05-06 17:40 | 37.46825 | 15.06413 | 34 ft | 19 kts | 264° |
| 2026-05-06 17:40 | 37.46811 | 15.06242 | 34 ft | 19 kts | 264° |
| 2026-05-06 17:40 | 37.46797 | 15.06086 | 34 ft | 18 kts | 265° |
| 2026-05-06 17:40 | 37.46784 | 15.05923 | 34 ft | 20 kts | 264° |
| 2026-05-06 17:41 | 37.46769 | 15.05741 | 34 ft | 21 kts | 264° |
| 2026-05-06 17:41 | 37.46755 | 15.05582 | 34 ft | 15 kts | 264° |
| 2026-05-06 17:41 | 37.46745 | 15.05454 | 34 ft | 16 kts | 264° |
| 2026-05-06 17:41 | 37.46733 | 15.05338 | 34 ft | 9 kts | 248° |
| 2026-05-06 17:42 | 37.46684 | 15.05274 | 35 ft | 11 kts | 221° |
| 2026-05-06 17:42 | 37.46631 | 15.05216 | 36 ft | 6 kts | 221° |
| 2026-05-06 17:42 | 37.46597 | 15.05198 | 37 ft | 5 kts | 174° |
| 2026-05-06 17:42 | 37.46567 | 15.05225 | 38 ft | 6 kts | 118° |
| 2026-05-06 17:43 | 37.46566 | 15.05293 | 37 ft | 13 kts | 84° |
| 2026-05-06 17:43 | 37.46601 | 15.05705 | 36 ft | 85 kts | 84° |
| 2026-05-06 17:43 | 37.46687 | 15.06721 | 43 ft | 145 kts | 83° |
| 2026-05-06 17:43 | 37.46775 | 15.08047 | 511 ft | 161 kts | 85° |
| 2026-05-06 17:44 | 37.46870 | 15.09491 | 1247 ft | 167 kts | 82° |
| 2026-05-06 17:44 | 37.47054 | 15.10938 | 1956 ft | 178 kts | 83° |
| 2026-05-06 17:44 | 37.47277 | 15.12625 | 2271 ft | 206 kts | 82° |
| 2026-05-06 17:44 | 37.47532 | 15.14444 | 2948 ft | 219 kts | 82° |
| 2026-05-06 17:45 | 37.47799 | 15.16338 | 3752 ft | 226 kts | 83° |
| 2026-05-06 17:45 | 37.48075 | 15.18285 | 4631 ft | 228 kts | 83° |
| 2026-05-06 17:45 | 37.48351 | 15.20284 | 5455 ft | 232 kts | 83° |
| 2026-05-06 17:45 | 37.48653 | 15.22325 | 6240 ft | 236 kts | 82° |
| 2026-05-06 17:46 | 37.48964 | 15.24358 | 6824 ft | 238 kts | 83° |
| 2026-05-06 17:46 | 37.48994 | 15.26411 | 6838 ft | 230 kts | 109° |
| 2026-05-06 17:46 | 37.48225 | 15.28104 | 6900 ft | 226 kts | 138° |
| 2026-05-06 17:46 | 37.46880 | 15.29188 | 6900 ft | 237 kts | 162° |
| 2026-05-06 17:47 | 37.45209 | 15.29474 | 6921 ft | 252 kts | 187° |
| 2026-05-06 17:47 | 37.43523 | 15.28760 | 6948 ft | 262 kts | 209° |
| 2026-05-06 17:47 | 37.42123 | 15.27268 | 6974 ft | 269 kts | 229° |
| 2026-05-06 17:47 | 37.41250 | 15.25176 | 6977 ft | 275 kts | 252° |
| 2026-05-06 17:48 | 37.40884 | 15.22793 | 7005 ft | 279 kts | 257° |
| 2026-05-06 17:48 | 37.40582 | 15.20388 | 6994 ft | 279 kts | 258° |
| 2026-05-06 17:48 | 37.40314 | 15.17970 | 6999 ft | 280 kts | 259° |
| 2026-05-06 17:48 | 37.40065 | 15.15544 | 7001 ft | 279 kts | 260° |
| 2026-05-06 17:49 | 37.39827 | 15.13118 | 7010 ft | 280 kts | 259° |
| 2026-05-06 17:49 | 37.39594 | 15.10687 | 7015 ft | 280 kts | 259° |
| 2026-05-06 17:49 | 37.39448 | 15.08245 | 7015 ft | 284 kts | 271° |
| 2026-05-06 17:49 | 37.39752 | 15.05787 | 7670 ft | 283 kts | 276° |
| 2026-05-06 17:50 | 37.40061 | 15.03330 | 8535 ft | 286 kts | 276° |
| 2026-05-06 17:50 | 37.40374 | 15.00851 | 9426 ft | 288 kts | 275° |
| 2026-05-06 17:50 | 37.40691 | 14.98350 | 10219 ft | 292 kts | 275° |
| 2026-05-06 17:50 | 37.41020 | 14.95761 | 10689 ft | 309 kts | 276° |
| 2026-05-06 17:51 | 37.41365 | 14.93040 | 11251 ft | 320 kts | 276° |
| 2026-05-06 17:51 | 37.41438 | 14.90286 | 12220 ft | 310 kts | 257° |
| 2026-05-06 17:51 | 37.40711 | 14.87793 | 13221 ft | 304 kts | 237° |
| 2026-05-06 17:51 | 37.39333 | 14.85851 | 14183 ft | 302 kts | 220° |
| 2026-05-06 17:52 | 37.37644 | 14.84219 | 14575 ft | 307 kts | 219° |
| 2026-05-06 17:52 | 37.35944 | 14.82640 | 14725 ft | 302 kts | 218° |
| 2026-05-06 17:52 | 37.34244 | 14.81099 | 14877 ft | 301 kts | 218° |
| 2026-05-06 17:52 | 37.32542 | 14.79575 | 14965 ft | 301 kts | 217° |
| 2026-05-06 17:53 | 37.30833 | 14.78059 | 14979 ft | 301 kts | 218° |
| 2026-05-06 17:53 | 37.29118 | 14.76549 | 14981 ft | 301 kts | 218° |
| 2026-05-06 17:53 | 37.27404 | 14.75045 | 14998 ft | 301 kts | 218° |
| 2026-05-06 17:53 | 37.25689 | 14.73542 | 14956 ft | 302 kts | 217° |
| 2026-05-06 17:54 | 37.23963 | 14.72032 | 14987 ft | 303 kts | 218° |
| 2026-05-06 17:54 | 37.22233 | 14.70519 | 14988 ft | 303 kts | 218° |
| 2026-05-06 17:54 | 37.20503 | 14.69008 | 14983 ft | 303 kts | 217° |
| 2026-05-06 17:54 | 37.19359 | 14.68009 | 14990 ft | 303 kts | 217° |
| 2026-05-06 17:55 | 37.17608 | 14.66480 | 14982 ft | 303 kts | 217° |
| 2026-05-06 17:55 | 37.15902 | 14.64992 | 14989 ft | 303 kts | 217° |
| 2026-05-06 17:55 | 37.14174 | 14.63485 | 14983 ft | 303 kts | 217° |
| 2026-05-06 17:55 | 37.12422 | 14.61957 | 14988 ft | 303 kts | 218° |
| 2026-05-06 17:56 | 37.10693 | 14.60452 | 14990 ft | 302 kts | 218° |
| 2026-05-06 17:56 | 37.08965 | 14.58948 | 14994 ft | 302 kts | 218° |
| 2026-05-06 17:56 | 37.07259 | 14.57464 | 14994 ft | 303 kts | 217° |
| 2026-05-06 17:56 | 37.05529 | 14.55959 | 14993 ft | 303 kts | 217° |
| 2026-05-06 17:57 | 37.03799 | 14.54456 | 14991 ft | 302 kts | 217° |
| 2026-05-06 17:57 | 37.02072 | 14.52956 | 14994 ft | 302 kts | 217° |
| 2026-05-06 17:57 | 37.00350 | 14.51462 | 14993 ft | 301 kts | 217° |
| 2026-05-06 17:57 | 36.98626 | 14.49966 | 14991 ft | 302 kts | 217° |
| 2026-05-06 17:58 | 36.96902 | 14.48471 | 14994 ft | 302 kts | 217° |
| 2026-05-06 17:58 | 36.95177 | 14.46977 | 14988 ft | 302 kts | 217° |
| 2026-05-06 17:58 | 36.93453 | 14.45484 | 14983 ft | 301 kts | 217° |
| 2026-05-06 17:58 | 36.91734 | 14.43995 | 14980 ft | 302 kts | 217° |
| 2026-05-06 17:59 | 36.90011 | 14.42504 | 14974 ft | 301 kts | 217° |
| 2026-05-06 17:59 | 36.88288 | 14.41014 | 14967 ft | 301 kts | 217° |
| 2026-05-06 17:59 | 36.86512 | 14.39625 | 14943 ft | 304 kts | 207° |
| 2026-05-06 17:59 | 36.84451 | 14.38931 | 14601 ft | 309 kts | 195° |
| 2026-05-06 18:00 | 36.82346 | 14.38418 | 14267 ft | 307 kts | 195° |
| 2026-05-06 18:00 | 36.80253 | 14.37918 | 13939 ft | 306 kts | 195° |
| 2026-05-06 18:00 | 36.78167 | 14.37430 | 13604 ft | 304 kts | 195° |
| 2026-05-06 18:00 | 36.76090 | 14.36950 | 13244 ft | 303 kts | 194° |
| 2026-05-06 18:01 | 36.74021 | 14.36475 | 12886 ft | 302 kts | 194° |
| 2026-05-06 18:01 | 36.71954 | 14.36002 | 12520 ft | 301 kts | 193° |
| 2026-05-06 18:01 | 36.69894 | 14.35531 | 12166 ft | 301 kts | 193° |
| 2026-05-06 18:01 | 36.67846 | 14.35063 | 11826 ft | 300 kts | 193° |
| 2026-05-06 18:02 | 36.65796 | 14.34595 | 11480 ft | 299 kts | 193° |
| 2026-05-06 18:02 | 36.63756 | 14.34130 | 11152 ft | 297 kts | 193° |
| 2026-05-06 18:02 | 36.61723 | 14.33667 | 10814 ft | 297 kts | 192° |
| 2026-05-06 18:02 | 36.59691 | 14.33204 | 10483 ft | 296 kts | 191° |
| 2026-05-06 18:03 | 36.57666 | 14.32743 | 10148 ft | 296 kts | 191° |
| 2026-05-06 18:03 | 36.55652 | 14.32285 | 9833 ft | 295 kts | 191° |
| 2026-05-06 18:03 | 36.53646 | 14.31829 | 9490 ft | 293 kts | 190° |
| 2026-05-06 18:03 | 36.51641 | 14.31374 | 9132 ft | 292 kts | 190° |
| 2026-05-06 18:04 | 36.49649 | 14.30920 | 8785 ft | 290 kts | 190° |
| 2026-05-06 18:04 | 36.47671 | 14.30470 | 8455 ft | 288 kts | 190° |
| 2026-05-06 18:04 | 36.45705 | 14.30022 | 8105 ft | 287 kts | 189° |
| 2026-05-06 18:04 | 36.43748 | 14.29578 | 7769 ft | 285 kts | 189° |
| 2026-05-06 18:05 | 36.41800 | 14.29134 | 7438 ft | 284 kts | 189° |
| 2026-05-06 18:05 | 36.39850 | 14.28691 | 7107 ft | 285 kts | 189° |
| 2026-05-06 18:05 | 36.37909 | 14.28250 | 6783 ft | 283 kts | 189° |
| 2026-05-06 18:05 | 36.35978 | 14.27812 | 6454 ft | 281 kts | 189° |
| 2026-05-06 18:06 | 36.34059 | 14.27377 | 6126 ft | 279 kts | 188° |
| 2026-05-06 18:06 | 36.32154 | 14.26946 | 5785 ft | 277 kts | 188° |
| 2026-05-06 18:06 | 36.30261 | 14.26517 | 5475 ft | 275 kts | 188° |
| 2026-05-06 18:06 | 36.28385 | 14.26090 | 5208 ft | 273 kts | 186° |
| 2026-05-06 18:07 | 36.26520 | 14.25669 | 4930 ft | 274 kts | 187° |
| 2026-05-06 18:07 | 36.24644 | 14.25244 | 4662 ft | 274 kts | 187° |
| 2026-05-06 18:07 | 36.22769 | 14.24819 | 4377 ft | 274 kts | 186° |
| 2026-05-06 18:07 | 36.20897 | 14.24393 | 4110 ft | 273 kts | 186° |
| 2026-05-06 18:08 | 36.19035 | 14.23973 | 3821 ft | 273 kts | 186° |
| 2026-05-06 18:08 | 36.17171 | 14.23553 | 3591 ft | 271 kts | 185° |
| 2026-05-06 18:08 | 36.15325 | 14.23139 | 3407 ft | 270 kts | 185° |
| 2026-05-06 18:08 | 36.13472 | 14.22721 | 3244 ft | 271 kts | 185° |
| 2026-05-06 18:09 | 36.11647 | 14.22307 | 3104 ft | 260 kts | 185° |
| 2026-05-06 18:09 | 36.09934 | 14.21920 | 3025 ft | 251 kts | 185° |
| 2026-05-06 18:09 | 36.08211 | 14.21533 | 2984 ft | 252 kts | 184° |
| 2026-05-06 18:09 | 36.06511 | 14.21327 | 2976 ft | 233 kts | 169° |
| 2026-05-06 18:10 | 36.05105 | 14.21968 | 2986 ft | 203 kts | 140° |
| 2026-05-06 18:10 | 36.04303 | 14.23248 | 2984 ft | 179 kts | 115° |
| 2026-05-06 18:10 | 36.03801 | 14.24540 | 2952 ft | 156 kts | 122° |
| 2026-05-06 18:10 | 36.03209 | 14.25616 | 2920 ft | 151 kts | 128° |
| 2026-05-06 18:11 | 36.02550 | 14.26635 | 2970 ft | 152 kts | 130° |
| 2026-05-06 18:11 | 36.01852 | 14.27613 | 2992 ft | 152 kts | 132° |
| 2026-05-06 18:11 | 36.01132 | 14.28564 | 2969 ft | 151 kts | 133° |
| 2026-05-06 18:11 | 36.00401 | 14.29502 | 2945 ft | 152 kts | 134° |
| 2026-05-06 18:12 | 35.99663 | 14.30436 | 2948 ft | 152 kts | 134° |
| 2026-05-06 18:12 | 35.98924 | 14.31365 | 2950 ft | 152 kts | 134° |
| 2026-05-06 18:12 | 35.98179 | 14.32296 | 2947 ft | 153 kts | 134° |
| 2026-05-06 18:12 | 35.97431 | 14.33229 | 2935 ft | 153 kts | 134° |
| 2026-05-06 18:13 | 35.96680 | 14.34164 | 2986 ft | 153 kts | 135° |
| 2026-05-06 18:13 | 35.95935 | 14.35093 | 2953 ft | 153 kts | 135° |
| 2026-05-06 18:13 | 35.95181 | 14.36030 | 2831 ft | 152 kts | 133° |
| 2026-05-06 18:13 | 35.94482 | 14.36899 | 2676 ft | 133 kts | 133° |
| 2026-05-06 18:14 | 35.93848 | 14.37689 | 2503 ft | 129 kts | 133° |
| 2026-05-06 18:14 | 35.93228 | 14.38463 | 2489 ft | 128 kts | 133° |
| 2026-05-06 18:14 | 35.92572 | 14.39277 | 1923 ft | 137 kts | 134° |
| 2026-05-06 18:14 | 35.91951 | 14.40056 | 1798 ft | 123 kts | 133° |
| 2026-05-06 18:15 | 35.91368 | 14.40797 | 1679 ft | 120 kts | 135° |
| 2026-05-06 18:15 | 35.90786 | 14.41516 | 1675 ft | 118 kts | 133° |
| 2026-05-06 18:15 | 35.90211 | 14.42248 | 1604 ft | 118 kts | 133° |
| 2026-05-06 18:15 | 35.89621 | 14.42960 | 1450 ft | 119 kts | 134° |
| 2026-05-06 18:16 | 35.89037 | 14.43684 | 1287 ft | 119 kts | 133° |
| 2026-05-06 18:16 | 35.88462 | 14.44422 | 1123 ft | 119 kts | 133° |
| 2026-05-06 18:16 | 35.87864 | 14.45141 | 985 ft | 121 kts | 132° |
| 2026-05-06 18:16 | 35.87265 | 14.45874 | 766 ft | 122 kts | 131° |
| 2026-05-06 18:17 | 35.86675 | 14.46614 | 585 ft | 123 kts | 134° |
| 2026-05-06 18:17 | 35.86060 | 14.47365 | 443 ft | 124 kts | 131° |
| 2026-05-06 18:17 | 35.85456 | 14.48122 | 295 ft | 123 kts | 134° |
| 2026-05-06 18:17 | 35.84955 | 14.48740 | 266 ft | 72 kts | 135° |
| 2026-05-06 18:18 | 35.84663 | 14.49097 | 262 ft | 56 kts | 135° |
| 2026-05-06 18:18 | 35.84500 | 14.49330 | 261 ft | 31 kts | 121° |
| 2026-05-06 18:18 | 35.84448 | 14.49493 | 261 ft | 10 kts | 103° |
| 2026-05-06 18:18 | 35.84463 | 14.49559 | 260 ft | 8 kts | 48° |
| 2026-05-06 18:19 | 35.84500 | 14.49578 | 260 ft | 0 kts | 359° |
| 2026-05-06 18:19 | 35.84502 | 14.49578 | 260 ft | 0 kts | 357° |
| 2026-05-06 18:19 | 35.84503 | 14.49578 | 260 ft | 0 kts | 356° |
| 2026-05-06 18:19 | 35.84504 | 14.49578 | 260 ft | 1 kts | 355° |
| 2026-05-06 18:20 | 35.84505 | 14.49577 | 260 ft | 0 kts | 355° |
| 2026-05-06 18:20 | 35.84511 | 14.49576 | 260 ft | 2 kts | 345° |
| 2026-05-06 18:21 | 35.84530 | 14.49561 | 260 ft | 4 kts | 317° |
| 2026-05-06 18:21 | 35.84558 | 14.49528 | 260 ft | 7 kts | 315° |
| 2026-05-06 18:21 | 35.84597 | 14.49480 | 260 ft | 9 kts | 314° |
| 2026-05-06 18:21 | 35.84647 | 14.49418 | 261 ft | 11 kts | 315° |
| 2026-05-06 18:22 | 35.84707 | 14.49343 | 261 ft | 13 kts | 314° |
| 2026-05-06 18:22 | 35.84777 | 14.49256 | 262 ft | 15 kts | 316° |
| 2026-05-06 18:22 | 35.84855 | 14.49160 | 263 ft | 16 kts | 314° |
| 2026-05-06 18:22 | 35.84934 | 14.49060 | 264 ft | 16 kts | 312° |
| 2026-05-06 18:23 | 35.84983 | 14.48950 | 264 ft | 15 kts | 287° |
| 2026-05-06 18:23 | 35.84998 | 14.48880 | 265 ft | 0 kts | 283° |
| 2026-05-06 18:23 | 35.84999 | 14.48871 | 265 ft | 3 kts | 284° |
| 2026-05-06 18:23 | 35.85007 | 14.48835 | 266 ft | 5 kts | 284° |
| 2026-05-06 18:24 | 35.85018 | 14.48782 | 266 ft | 9 kts | 285° |
| 2026-05-06 18:24 | 35.85048 | 14.48676 | 268 ft | 16 kts | 297° |
| 2026-05-06 18:24 | 35.85102 | 14.48560 | 268 ft | 13 kts | 306° |
| 2026-05-06 18:24 | 35.85167 | 14.48474 | 270 ft | 14 kts | 315° |
| 2026-05-06 18:25 | 35.85244 | 14.48380 | 270 ft | 17 kts | 315° |
| 2026-05-06 18:25 | 35.85333 | 14.48270 | 270 ft | 19 kts | 315° |
| 2026-05-06 18:25 | 35.85428 | 14.48154 | 270 ft | 20 kts | 314° |
| 2026-05-06 18:25 | 35.85534 | 14.48022 | 271 ft | 22 kts | 315° |
| 2026-05-06 18:26 | 35.85627 | 14.47908 | 272 ft | 16 kts | 314° |
| 2026-05-06 18:26 | 35.85685 | 14.47828 | 268 ft | 14 kts | 312° |
| 2026-05-06 18:26 | 35.85751 | 14.47752 | 256 ft | 11 kts | 323° |
| 2026-05-06 18:26 | 35.85813 | 14.47682 | 255 ft | 11 kts | 315° |
| 2026-05-06 18:27 | 35.85851 | 14.47633 | 256 ft | 5 kts | 296° |
| 2026-05-06 18:27 | 35.85847 | 14.47582 | 257 ft | 10 kts | 253° |
| 2026-05-06 18:27 | 35.85798 | 14.47487 | 257 ft | 15 kts | 233° |
| 2026-05-06 18:27 | 35.85733 | 14.47379 | 257 ft | 16 kts | 233° |
| 2026-05-06 18:28 | 35.85666 | 14.47267 | 258 ft | 14 kts | 232° |
| 2026-05-06 18:28 | 35.85607 | 14.47171 | 259 ft | 15 kts | 232° |
| 2026-05-06 18:28 | 35.85545 | 14.47069 | 260 ft | 13 kts | 234° |
| 2026-05-06 18:28 | 35.85487 | 14.46972 | 261 ft | 15 kts | 234° |